Time;durP1;ratioP1;P1;durP2;ratioP2;P2;SDS_P1;SDS_P2;PMS_P1;PMS_P2;Temp;Humidity;BMP_temperature;BMP_pressure;BME280_temperature;BME280_humidity;BME280_pressure;Samples;Min_cycle;Max_cycle;Signal;HPM_P1;HPM_P2
2024/03/08 00:00:19;;;;;;;15.80;11.47;;;;;;;4.10;86.47;96570.72;5136579;27;20198;-85
2024/03/08 00:02:46;;;;;;;14.13;11.80;;;;;;;4.06;87.01;96575.69;5135158;27;20278;-85
2024/03/08 00:05:14;;;;;;;18.53;13.37;;;;;;;4.00;86.97;96568.78;5135482;27;20195;-85
2024/03/08 00:07:42;;;;;;;13.67;11.17;;;;;;;4.07;86.67;96587.03;5135910;27;20609;-85
2024/03/08 00:10:12;;;;;;;16.23;12.03;;;;;;;4.04;86.78;96567.25;5135280;27;20733;-85
2024/03/08 00:12:41;;;;;;;14.40;12.47;;;;;;;4.04;86.29;96564.59;5115569;27;20260;-85
2024/03/08 00:15:09;;;;;;;14.50;11.07;;;;;;;3.75;87.42;96542.88;5132065;27;20251;-85
2024/03/08 00:17:36;;;;;;;14.10;11.20;;;;;;;3.87;87.19;96517.28;5126123;27;20202;-85
2024/03/08 00:20:08;;;;;;;14.83;10.30;;;;;;;4.02;87.14;96557.97;5135256;27;20680;-85
2024/03/08 00:22:35;;;;;;;13.57;11.53;;;;;;;3.89;86.99;96530.97;5135827;27;20198;-84
2024/03/08 00:25:02;;;;;;;16.70;12.00;;;;;;;3.76;86.97;96533.19;5135454;27;20275;-85
2024/03/08 00:27:31;;;;;;;17.40;11.63;;;;;;;3.90;87.50;96551.00;5135162;27;20199;-85
2024/03/08 00:30:00;;;;;;;16.90;12.00;;;;;;;3.94;87.70;96551.31;5136028;27;20216;-85
2024/03/08 00:32:27;;;;;;;14.27;11.97;;;;;;;3.98;87.48;96554.25;5135510;27;20668;-84
2024/03/08 00:34:55;;;;;;;14.97;11.80;;;;;;;3.89;87.65;96543.34;5135651;27;20209;-85
2024/03/08 00:37:22;;;;;;;16.57;12.40;;;;;;;4.03;87.14;96554.31;5135182;27;20224;-84
2024/03/08 00:39:49;;;;;;;18.60;12.17;;;;;;;4.01;87.45;96551.91;5135178;27;20243;-84
2024/03/08 00:42:16;;;;;;;18.53;13.03;;;;;;;3.98;87.34;96565.56;5123923;27;20195;-85
2024/03/08 00:44:43;;;;;;;17.57;13.07;;;;;;;3.78;87.84;96552.16;5127779;27;20245;-84
2024/03/08 00:47:12;;;;;;;14.60;12.03;;;;;;;3.99;87.44;96556.66;5134770;27;20229;-85
2024/03/08 00:49:39;;;;;;;16.80;13.47;;;;;;;3.62;87.41;96509.84;5095214;28;20237;-85
2024/03/08 00:52:07;;;;;;;17.23;11.93;;;;;;;3.98;87.19;96555.03;5093680;28;20188;-84
2024/03/08 00:54:35;;;;;;;15.70;12.07;;;;;;;3.96;87.37;96553.72;5093931;28;20242;-84
2024/03/08 00:57:03;;;;;;;18.47;12.47;;;;;;;3.67;87.46;96517.00;5093963;28;20238;-85
2024/03/08 00:59:32;;;;;;;18.60;15.00;;;;;;;3.90;87.47;96558.09;5109522;27;20279;-85
2024/03/08 01:01:59;;;;;;;16.00;12.00;;;;;;;3.90;87.04;96550.19;5135176;27;20202;-84
2024/03/08 01:04:28;;;;;;;16.07;13.17;;;;;;;3.84;87.08;96551.19;5134970;27;20305;-85
2024/03/08 01:06:56;;;;;;;19.80;14.17;;;;;;;3.61;87.32;96520.63;5134690;27;20198;-85
2024/03/08 01:09:22;;;;;;;16.67;13.03;;;;;;;4.02;87.20;96565.88;5135425;27;20195;-85
2024/03/08 01:11:49;;;;;;;16.37;12.93;;;;;;;3.86;87.33;96552.53;5135043;27;20200;-84
2024/03/08 01:14:16;;;;;;;17.33;12.83;;;;;;;3.61;87.59;96534.56;5132545;27;20289;-86
2024/03/08 01:16:43;;;;;;;16.53;12.33;;;;;;;3.62;88.04;96541.41;5113829;28;20244;-85
2024/03/08 01:19:10;;;;;;;15.37;12.77;;;;;;;3.62;87.63;96533.53;5129814;27;20623;-85
2024/03/08 01:21:38;;;;;;;16.10;12.57;;;;;;;3.63;87.94;96529.84;5125445;27;20565;-85
2024/03/08 01:24:06;;;;;;;19.70;12.93;;;;;;;3.72;87.41;96546.03;5134468;27;20227;-84
2024/03/08 01:26:34;;;;;;;13.63;11.87;;;;;;;3.89;87.33;96569.66;5133168;27;20271;-84
2024/03/08 01:29:02;;;;;;;17.10;12.47;;;;;;;3.84;87.55;96564.34;5134112;27;20194;-85
2024/03/08 01:31:30;;;;;;;16.00;12.10;;;;;;;3.80;86.99;96569.31;5134884;27;20285;-85
2024/03/08 01:33:57;;;;;;;13.60;11.77;;;;;;;3.66;86.66;96541.72;5134815;27;20190;-84
2024/03/08 01:36:24;;;;;;;17.03;12.03;;;;;;;3.85;87.19;96565.94;5118935;27;20245;-84
2024/03/08 01:38:53;;;;;;;15.47;12.30;;;;;;;3.86;87.30;96560.41;5113803;28;20206;-84
2024/03/08 01:41:20;;;;;;;15.47;12.43;;;;;;;3.65;87.02;96532.25;5113875;28;20196;-84
2024/03/08 01:43:46;;;;;;;14.37;10.97;;;;;;;3.61;86.94;96525.88;5113404;28;20689;-84
2024/03/08 01:46:17;;;;;;;16.50;13.07;;;;;;;3.92;86.73;96567.34;5113504;28;20199;-84
2024/03/08 01:48:45;;;;;;;23.03;14.60;;;;;;;3.56;86.17;96533.69;5126549;27;20255;-84
2024/03/08 01:51:14;;;;;;;18.13;13.07;;;;;;;3.57;86.41;96551.09;5132809;27;20199;-84
2024/03/08 01:53:45;;;;;;;19.67;14.07;;;;;;;3.36;86.58;96518.41;5132859;27;20234;-84
2024/03/08 01:56:14;;;;;;;19.43;14.23;;;;;;;3.37;86.48;96526.06;5133366;27;20203;-84
2024/03/08 01:58:43;;;;;;;17.63;13.87;;;;;;;3.72;87.06;96575.00;5134147;27;20746;-84
2024/03/08 02:01:14;;;;;;;19.13;14.00;;;;;;;3.80;86.46;96568.50;5134646;27;20276;-84
2024/03/08 02:03:43;;;;;;;14.73;12.80;;;;;;;3.72;86.82;96572.34;5133341;27;20222;-85
2024/03/08 02:06:10;;;;;;;19.77;14.83;;;;;;;3.68;86.95;96568.63;5134046;27;20200;-84
2024/03/08 02:08:38;;;;;;;19.17;13.17;;;;;;;3.59;87.07;96541.09;5133913;27;20198;-84
2024/03/08 02:11:05;;;;;;;20.00;13.13;;;;;;;3.77;87.33;96567.16;5133737;27;20202;-84
2024/03/08 02:13:34;;;;;;;17.33;12.83;;;;;;;3.47;87.06;96535.94;5133602;27;20194;-84
2024/03/08 02:16:01;;;;;;;19.07;13.80;;;;;;;3.67;86.33;96543.31;5133891;27;20224;-84
2024/03/08 02:18:29;;;;;;;16.87;13.07;;;;;;;3.59;86.10;96546.38;5133592;27;20201;-84
2024/03/08 02:20:59;;;;;;;20.47;13.00;;;;;;;3.74;86.81;96574.72;5131968;27;20255;-84
2024/03/08 02:23:26;;;;;;;15.13;13.53;;;;;;;3.76;86.47;96572.66;5132468;27;20714;-84
2024/03/08 02:25:54;;;;;;;17.97;13.83;;;;;;;3.49;87.11;96531.25;5133409;27;20248;-84
2024/03/08 02:28:21;;;;;;;15.30;12.77;;;;;;;3.69;87.00;96557.03;5132454;27;20215;-85
2024/03/08 02:30:50;;;;;;;17.97;13.90;;;;;;;3.80;86.47;96579.84;5133604;27;20195;-83
2024/03/08 02:33:18;;;;;;;19.60;14.00;;;;;;;3.56;86.97;96550.28;5133619;27;20255;-84
2024/03/08 02:35:46;;;;;;;18.00;12.97;;;;;;;3.67;86.83;96578.31;5133019;27;20677;-84
2024/03/08 02:38:16;;;;;;;18.57;12.47;;;;;;;3.34;87.09;96528.41;5133148;27;20660;-84
2024/03/08 02:40:42;;;;;;;19.67;12.57;;;;;;;3.74;86.33;96564.19;5133483;27;20190;-84
2024/03/08 02:43:09;;;;;;;16.33;12.63;;;;;;;3.70;87.17;96573.63;5133620;27;20198;-84
2024/03/08 02:45:36;;;;;;;16.33;13.07;;;;;;;3.70;87.38;96569.16;5131774;27;20643;-85
2024/03/08 02:48:03;;;;;;;16.13;12.90;;;;;;;3.34;87.33;96499.47;5132375;27;20202;-85
2024/03/08 02:50:30;;;;;;;17.60;12.93;;;;;;;3.63;86.50;96529.03;5133255;27;20205;-84
2024/03/08 02:52:57;;;;;;;18.97;13.80;;;;;;;3.49;86.71;96533.09;5132956;27;20195;-84
2024/03/08 02:55:25;;;;;;;20.23;14.47;;;;;;;3.71;86.80;96568.09;5113318;27;20203;-85
2024/03/08 02:57:54;;;;;;;15.33;13.13;;;;;;;3.36;86.72;96527.09;5132460;27;20258;-85
2024/03/08 03:00:23;;;;;;;20.00;16.13;;;;;;;3.76;86.61;96559.50;5132253;28;20194;-85
2024/03/08 03:02:52;;;;;;;20.57;16.73;;;;;;;3.76;86.57;96564.78;5132580;27;20198;-84
2024/03/08 03:05:19;;;;;;;21.47;17.80;;;;;;;3.72;87.13;96558.38;5133047;27;20309;-84
2024/03/08 03:07:46;;;;;;;16.67;14.83;;;;;;;3.55;86.67;96526.84;5131868;28;20205;-84
2024/03/08 03:10:16;;;;;;;18.93;14.50;;;;;;;3.39;86.88;96507.41;5133602;28;20190;-85
2024/03/08 03:12:45;;;;;;;21.10;16.90;;;;;;;3.52;86.91;96538.63;5132652;28;20190;-85
2024/03/08 03:15:12;;;;;;;21.60;18.47;;;;;;;3.52;86.97;96528.09;5134739;27;20285;-85
2024/03/08 03:17:40;;;;;;;18.33;15.53;;;;;;;3.64;87.20;96555.13;5136180;27;20248;-85
2024/03/08 03:20:10;;;;;;;16.53;12.60;;;;;;;3.60;87.23;96553.22;5136905;27;20198;-84
2024/03/08 03:22:38;;;;;;;18.60;11.97;;;;;;;3.56;87.10;96565.25;5137630;27;20205;-84
2024/03/08 03:25:06;;;;;;;16.67;12.67;;;;;;;3.53;87.24;96549.97;5135416;27;20224;-84
2024/03/08 03:27:33;;;;;;;15.20;12.50;;;;;;;3.40;87.39;96519.53;5124157;27;20235;-83
2024/03/08 03:30:20;;;;;;;13.57;10.40;;;;;;;3.12;87.73;96483.63;5115675;28;20623;-84
2024/03/08 03:32:48;;;;;;;14.03;10.90;;;;;;;3.37;87.32;96544.50;5115088;28;20206;-84
2024/03/08 03:35:15;;;;;;;16.30;11.10;;;;;;;3.12;87.23;96531.75;5125321;27;20194;-83
2024/03/08 03:37:45;;;;;;;15.37;11.50;;;;;;;3.22;88.24;96525.84;5127006;27;20207;-84
2024/03/08 03:40:14;;;;;;;18.07;13.03;;;;;;;3.54;87.70;96568.16;5116348;28;20286;-84
2024/03/08 03:42:40;;;;;;;15.63;12.27;;;;;;;3.49;87.40;96562.03;5115685;28;20199;-84
2024/03/08 03:45:10;;;;;;;15.57;11.73;;;;;;;3.51;87.53;96563.34;5116035;28;20217;-83
2024/03/08 03:47:37;;;;;;;18.37;14.13;;;;;;;3.50;88.17;96569.66;5114562;28;20283;-85
2024/03/08 03:50:06;;;;;;;13.47;11.10;;;;;;;3.49;88.14;96560.19;5115810;28;20569;-84
2024/03/08 03:52:32;;;;;;;14.77;12.13;;;;;;;3.54;87.76;96564.72;5114860;27;20203;-85
2024/03/08 03:54:59;;;;;;;13.73;12.20;;;;;;;3.49;87.54;96564.66;5115863;28;20544;-84
2024/03/08 03:57:26;;;;;;;15.87;12.33;;;;;;;3.49;87.99;96568.09;5126106;27;20199;-84
2024/03/08 03:59:53;;;;;;;16.53;13.33;;;;;;;3.35;88.57;96546.56;5135016;27;20195;-84
2024/03/08 04:02:21;;;;;;;15.07;12.37;;;;;;;3.61;87.81;96566.16;5135019;27;20211;-84
2024/03/08 04:04:49;;;;;;;15.67;12.67;;;;;;;3.52;87.93;96574.69;5136512;27;20218;-84
2024/03/08 04:07:16;;;;;;;15.97;13.03;;;;;;;3.57;88.27;96567.66;5135430;27;20194;-85
2024/03/08 04:09:43;;;;;;;16.20;11.50;;;;;;;3.32;87.61;96526.00;5136297;27;20608;-85
2024/03/08 04:12:10;;;;;;;15.20;12.67;;;;;;;3.37;87.54;96559.47;5137333;27;20195;-89
2024/03/08 04:14:37;;;;;;;16.33;12.47;;;;;;;3.19;87.80;96544.75;5137161;27;20187;-90
2024/03/08 04:17:04;;;;;;;16.27;12.33;;;;;;;3.23;87.99;96555.56;5136351;27;20199;-89
2024/03/08 04:19:34;;;;;;;17.50;12.60;;;;;;;3.29;88.08;96544.09;5137205;27;20229;-93
2024/03/08 04:22:01;;;;;;;17.50;12.60;;;;;;;3.55;88.12;96564.47;5137006;27;20203;-90
2024/03/08 04:24:30;;;;;;;15.33;12.30;;;;;;;3.22;87.53;96523.22;5136939;27;20680;-93
2024/03/08 04:26:57;;;;;;;15.53;12.90;;;;;;;3.61;87.75;96570.63;5136681;27;20290;-93
2024/03/08 04:29:24;;;;;;;16.10;12.93;;;;;;;3.44;88.08;96578.50;5124572;27;20196;-92
2024/03/08 04:31:54;;;;;;;14.50;12.47;;;;;;;3.47;87.85;96572.78;5130226;27;20209;-93
2024/03/08 04:34:21;;;;;;;15.33;11.67;;;;;;;3.48;87.92;96590.16;5134252;27;20281;-92
2024/03/08 04:36:52;;;;;;;15.00;12.10;;;;;;;2.83;88.56;96502.13;5118727;28;20195;-92
2024/03/08 04:39:19;;;;;;;16.20;13.13;;;;;;;3.38;88.63;96590.00;5132932;27;20233;-92
2024/03/08 04:41:48;;;;;;;14.50;12.47;;;;;;;3.09;88.39;96513.00;5135865;27;20209;-92
2024/03/08 04:44:15;;;;;;;18.13;12.70;;;;;;;3.61;87.93;96576.66;5136623;27;20206;-92
2024/03/08 04:46:42;;;;;;;18.20;11.10;;;;;;;3.69;88.39;96578.09;5135446;27;20205;-92
2024/03/08 04:49:11;;;;;;;16.70;12.50;;;;;;;3.65;87.94;96569.88;5136830;27;20307;-92
2024/03/08 04:51:38;;;;;;;17.50;13.20;;;;;;;3.62;87.83;96588.78;5136625;27;20253;-93
2024/03/08 04:54:06;;;;;;;35.13;22.13;;;;;;;3.44;87.66;96567.97;5134797;27;20241;-92
2024/03/08 04:56:33;;;;;;;22.43;14.90;;;;;;;3.52;87.85;96559.69;5136515;27;20233;-92
2024/03/08 04:59:00;;;;;;;18.87;13.83;;;;;;;3.62;87.75;96583.53;5136654;27;20237;-93
2024/03/08 05:01:27;;;;;;;14.60;12.70;;;;;;;3.42;88.05;96583.22;5123466;27;20200;-92
2024/03/08 05:03:55;;;;;;;19.00;13.27;;;;;;;3.60;88.25;96582.16;5121369;27;20203;-92
2024/03/08 05:06:23;;;;;;;13.97;11.33;;;;;;;3.73;88.05;96596.84;5135627;27;20222;-92
2024/03/08 05:08:50;;;;;;;18.30;14.00;;;;;;;3.42;87.47;96564.81;5135421;27;20680;-90
2024/03/08 05:11:19;;;;;;;22.97;17.03;;;;;;;3.41;88.77;96600.84;5134911;27;20203;-91
2024/03/08 05:13:46;;;;;;;18.57;13.73;;;;;;;3.37;88.46;96556.84;5114761;27;20200;-93
2024/03/08 05:16:15;;;;;;;21.23;16.33;;;;;;;3.79;88.46;96604.53;5115528;28;20256;-93
2024/03/08 05:18:43;;;;;;;16.07;13.10;;;;;;;3.57;87.46;96580.03;5114114;28;20203;-93
2024/03/08 05:21:10;;;;;;;15.63;12.03;;;;;;;3.23;87.98;96548.47;5096516;28;20204;-94
2024/03/08 05:23:38;;;;;;;19.40;13.17;;;;;;;3.04;88.03;96537.41;5113601;28;20192;-93
2024/03/08 05:26:05;;;;;;;16.47;12.43;;;;;;;3.52;88.44;96614.16;5115081;28;20215;-92
2024/03/08 05:28:33;;;;;;;16.60;14.37;;;;;;;3.45;88.82;96616.97;5124967;27;20199;-86
2024/03/08 05:31:01;;;;;;;18.87;13.90;;;;;;;3.07;88.99;96597.41;5132383;27;20198;-86
2024/03/08 05:33:28;;;;;;;19.20;13.20;;;;;;;3.32;89.05;96615.41;5113169;28;20634;-86
2024/03/08 05:35:54;;;;;;;17.90;13.20;;;;;;;3.12;89.25;96573.03;5119907;27;20203;-86
2024/03/08 05:38:21;;;;;;;19.63;14.80;;;;;;;3.35;89.18;96622.06;5133424;27;20220;-87
2024/03/08 05:40:48;;;;;;;16.40;13.57;;;;;;;3.40;89.31;96630.00;5135089;27;20199;-87
2024/03/08 05:43:17;;;;;;;13.47;12.07;;;;;;;3.37;89.52;96626.03;5134133;27;20195;-87
2024/03/08 05:45:45;;;;;;;17.77;13.73;;;;;;;3.39;89.11;96625.78;5135089;27;20234;-87
2024/03/08 05:48:12;;;;;;;18.33;13.30;;;;;;;3.12;89.08;96568.56;5124885;27;20621;-87
2024/03/08 05:50:39;;;;;;;13.70;11.77;;;;;;;3.47;89.21;96619.34;5126261;27;20290;-86
2024/03/08 05:53:07;;;;;;;14.57;11.67;;;;;;;3.20;89.04;96577.88;5135020;27;20198;-85
2024/03/08 05:55:34;;;;;;;13.70;12.17;;;;;;;3.55;88.58;96603.94;5134473;27;20203;-86
2024/03/08 05:58:01;;;;;;;14.50;12.53;;;;;;;3.56;88.54;96633.69;5093444;28;20728;-85
2024/03/08 06:00:28;;;;;;;16.73;12.57;;;;;;;3.55;88.91;96643.41;5098985;27;20182;-86
2024/03/08 06:02:57;;;;;;;16.70;12.77;;;;;;;3.65;88.53;96643.59;5115655;27;20199;-86
2024/03/08 06:05:25;;;;;;;13.27;11.73;;;;;;;3.68;88.17;96642.31;5113523;28;20215;-86
2024/03/08 06:07:53;;;;;;;16.03;12.63;;;;;;;3.59;88.13;96651.63;5113957;27;20199;-86
2024/03/08 06:10:20;;;;;;;15.90;11.83;;;;;;;3.47;88.42;96632.50;5113842;27;20256;-86
2024/03/08 06:12:47;;;;;;;16.60;13.03;;;;;;;3.34;88.73;96626.53;5133332;27;20625;-86
2024/03/08 06:15:15;;;;;;;18.13;12.13;;;;;;;3.50;88.73;96653.06;5133508;27;20206;-86
2024/03/08 06:17:42;;;;;;;18.07;11.47;;;;;;;3.61;88.78;96654.84;5099161;28;20580;-86
2024/03/08 06:20:12;;;;;;;18.63;13.17;;;;;;;3.40;88.87;96619.50;5125332;27;20201;-86
2024/03/08 06:22:40;;;;;;;18.53;13.27;;;;;;;3.62;88.48;96643.25;5125296;27;20196;-86
2024/03/08 06:25:07;;;;;;;13.70;11.17;;;;;;;3.68;88.85;96658.91;5124028;27;20214;-87
2024/03/08 06:27:34;;;;;;;15.53;12.37;;;;;;;3.73;88.16;96650.28;5133094;27;20190;-86
2024/03/08 06:30:01;;;;;;;15.47;11.90;;;;;;;3.75;88.47;96658.72;5118570;27;20256;-86
2024/03/08 06:32:28;;;;;;;15.87;11.87;;;;;;;3.87;88.05;96661.25;5132832;27;20330;-86
2024/03/08 06:34:54;;;;;;;16.27;12.00;;;;;;;3.73;88.39;96634.47;5133018;27;20563;-86
2024/03/08 06:37:23;;;;;;;17.90;12.70;;;;;;;3.68;88.03;96629.16;5133123;27;20191;-86
2024/03/08 06:39:51;;;;;;;15.00;12.40;;;;;;;3.78;87.83;96658.25;5132734;27;20195;-86
2024/03/08 06:42:18;;;;;;;14.70;11.60;;;;;;;3.92;87.70;96664.00;5132625;27;20198;-86
2024/03/08 06:44:49;;;;;;;15.13;12.40;;;;;;;3.90;87.95;96672.09;5132219;27;20194;-86
2024/03/08 06:47:16;;;;;;;16.90;13.10;;;;;;;3.99;87.72;96656.72;5132787;27;20286;-86
2024/03/08 06:49:43;;;;;;;16.93;12.40;;;;;;;4.03;87.65;96649.94;5114516;27;20206;-86
2024/03/08 06:52:10;;;;;;;21.47;13.83;;;;;;;4.00;87.78;96641.72;5122873;27;20541;-86
2024/03/08 06:54:38;;;;;;;16.23;12.93;;;;;;;3.91;87.36;96633.41;5132483;27;20195;-86
2024/03/08 06:57:06;;;;;;;22.17;13.27;;;;;;;3.78;87.56;96624.00;5132735;27;20259;-86
2024/03/08 06:59:32;;;;;;;16.03;12.63;;;;;;;3.93;88.08;96682.16;5118609;28;20215;-86
2024/03/08 07:02:00;;;;;;;15.17;12.60;;;;;;;3.99;88.48;96677.78;5120542;27;20229;-86
2024/03/08 07:04:29;;;;;;;18.63;16.33;;;;;;;3.55;87.89;96611.84;5127968;28;20192;-86
2024/03/08 07:06:57;;;;;;;18.73;15.30;;;;;;;4.01;88.33;96683.59;5123491;28;20219;-85
2024/03/08 07:09:26;;;;;;;16.50;12.50;;;;;;;4.00;88.02;96687.28;5132085;27;20207;-86
2024/03/08 07:11:55;;;;;;;14.07;11.57;;;;;;;4.17;88.02;96682.75;5120998;28;20207;-86
2024/03/08 07:14:22;;;;;;;16.17;12.67;;;;;;;4.04;87.73;96692.84;5130971;28;20642;-86
2024/03/08 07:16:52;;;;;;;14.60;12.30;;;;;;;4.05;87.22;96689.97;5129654;28;20207;-86
2024/03/08 07:19:19;;;;;;;16.20;11.67;;;;;;;4.11;86.74;96677.69;5132451;27;20187;-86
2024/03/08 07:21:47;;;;;;;14.77;11.17;;;;;;;4.34;86.75;96692.50;5131523;28;20673;-86
2024/03/08 07:24:27;;;;;;;9.17;7.50;;;;;;;4.44;85.79;96697.88;5127560;28;20199;-86
2024/03/08 07:26:55;;;;;;;7.90;5.67;;;;;;;4.21;85.55;96674.38;5132190;27;20692;-86
2024/03/08 07:29:22;;;;;;;9.07;8.17;;;;;;;4.31;83.90;96679.78;5131756;28;20676;-86
2024/03/08 07:32:00;;;;;;;6.93;6.23;;;;;;;4.32;85.96;96707.72;5131731;28;20206;-86
2024/03/08 07:34:27;;;;;;;4.53;4.13;;;;;;;4.06;85.15;96667.06;5132079;27;20195;-86
2024/03/08 07:36:56;;;;;;;3.73;3.33;;;;;;;4.08;85.00;96675.53;5132308;28;20202;-86
2024/03/08 07:39:23;;;;;;;3.53;2.77;;;;;;;4.09;84.78;96654.22;5131914;28;20672;-86
2024/03/08 07:41:52;;;;;;;5.37;4.00;;;;;;;4.42;85.15;96710.50;5131612;28;20199;-86
2024/03/08 07:44:23;;;;;;;6.33;4.87;;;;;;;4.26;84.67;96683.16;5130906;27;20204;-86
2024/03/08 07:46:50;;;;;;;17.10;13.13;;;;;;;4.30;84.63;96680.84;5123336;28;20766;-87
2024/03/08 07:49:18;;;;;;;10.30;9.30;;;;;;;4.58;84.94;96708.88;5123938;28;20315;-86
2024/03/08 07:51:44;;;;;;;6.93;6.37;;;;;;;4.35;83.96;96681.69;5131747;28;20247;-86
2024/03/08 07:54:11;;;;;;;4.83;4.43;;;;;;;4.27;83.82;96682.13;5118253;28;20191;-86
2024/03/08 07:56:40;;;;;;;4.57;4.10;;;;;;;4.54;83.62;96710.41;5104862;28;20258;-86
2024/03/08 07:59:07;;;;;;;4.80;4.30;;;;;;;4.25;83.84;96673.66;5132294;28;20225;-85
2024/03/08 08:01:35;;;;;;;5.33;3.43;;;;;;;4.37;83.89;96690.13;5131920;27;20287;-86
2024/03/08 08:04:02;;;;;;;3.77;3.40;;;;;;;4.24;83.83;96666.00;5121646;27;20195;-86
2024/03/08 08:06:31;;;;;;;4.30;3.90;;;;;;;4.48;84.37;96709.53;5136245;27;20221;-86
2024/03/08 08:08:58;;;;;;;11.50;8.97;;;;;;;4.53;84.85;96717.53;5135579;27;20195;-87
2024/03/08 08:11:27;;;;;;;22.53;14.70;;;;;;;4.60;84.05;96720.75;5135642;27;20203;-87
2024/03/08 08:13:54;;;;;;;5.53;4.73;;;;;;;4.40;83.82;96694.13;5135944;27;20202;-86
2024/03/08 08:16:21;;;;;;;26.70;21.03;;;;;;;4.49;84.16;96705.03;5126041;27;20231;-86
2024/03/08 08:18:50;;;;;;;10.73;8.37;;;;;;;4.50;84.37;96702.19;5131084;27;20660;-86
2024/03/08 08:21:17;;;;;;;6.83;5.57;;;;;;;4.49;84.59;96745.41;5135360;27;20205;-87
2024/03/08 08:23:44;;;;;;;5.10;3.37;;;;;;;4.53;84.02;96722.78;5132889;27;20301;-87
2024/03/08 08:26:11;;;;;;;6.93;5.80;;;;;;;4.42;84.81;96713.16;5124573;27;20562;-86
2024/03/08 08:28:43;;;;;;;6.03;5.37;;;;;;;4.30;84.46;96686.13;5135162;27;20195;-86
2024/03/08 08:31:10;;;;;;;6.57;4.90;;;;;;;4.46;84.16;96734.53;5135530;27;20562;-86
2024/03/08 08:33:36;;;;;;;5.20;4.70;;;;;;;4.48;84.57;96725.34;5135840;27;20252;-86
2024/03/08 08:36:05;;;;;;;5.27;4.63;;;;;;;4.56;84.08;96726.75;5135351;27;20213;-86
2024/03/08 08:38:33;;;;;;;5.63;4.77;;;;;;;4.56;84.21;96724.91;5121440;27;20206;-86
2024/03/08 08:40:59;;;;;;;4.53;3.57;;;;;;;4.59;83.71;96731.56;5123416;27;20733;-87
2024/03/08 08:43:26;;;;;;;5.70;3.97;;;;;;;4.60;84.28;96731.28;5134043;27;20195;-87
2024/03/08 08:45:54;;;;;;;4.73;3.73;;;;;;;4.38;84.20;96685.69;5135029;27;20218;-86
2024/03/08 08:48:21;;;;;;;1.70;1.60;;;;;;;4.79;82.57;96728.38;5135358;27;20258;-86
2024/03/08 08:50:50;;;;;;;2.53;2.33;;;;;;;4.47;82.76;96723.75;5121404;27;20255;-87
2024/03/08 08:53:18;;;;;;;2.37;2.17;;;;;;;4.49;83.97;96731.41;5125960;27;20193;-86
2024/03/08 08:55:45;;;;;;;1.77;1.67;;;;;;;4.30;83.92;96723.78;5129263;27;20278;-87
2024/03/08 08:58:13;;;;;;;4.53;4.13;;;;;;;4.38;83.05;96723.38;5133741;27;20227;-87
2024/03/08 09:00:44;;;;;;;4.07;3.67;;;;;;;4.28;83.18;96683.72;5121491;27;20286;-86
2024/03/08 09:03:12;;;;;;;3.70;3.40;;;;;;;4.52;82.74;96702.72;5134536;27;20199;-87
2024/03/08 09:05:42;;;;;;;4.00;3.70;;;;;;;4.79;82.55;96726.53;5133892;27;20230;-86
2024/03/08 09:08:09;;;;;;;6.97;6.23;;;;;;;4.85;83.00;96722.13;5122701;27;20204;-86
2024/03/08 09:10:39;;;;;;;6.80;4.30;;;;;;;4.82;82.85;96704.16;5134566;27;20643;-86
2024/03/08 09:13:06;;;;;;;4.80;3.90;;;;;;;4.99;82.50;96701.44;5134647;27;20210;-86
2024/03/08 09:15:32;;;;;;;13.77;9.33;;;;;;;5.13;81.87;96727.19;5133864;27;20259;-86
2024/03/08 09:17:59;;;;;;;7.43;5.30;;;;;;;5.39;82.02;96732.75;5125023;27;20264;-86
2024/03/08 09:20:26;;;;;;;6.60;5.90;;;;;;;5.50;80.31;96715.97;5129766;27;20208;-86
2024/03/08 09:22:54;;;;;;;3.00;2.70;;;;;;;5.53;78.67;96707.50;5134282;27;20203;-85
2024/03/08 09:25:21;;;;;;;3.73;3.43;;;;;;;5.89;79.25;96723.69;5131463;27;20515;-86
2024/03/08 09:27:49;;;;;;;7.30;6.60;;;;;;;6.12;78.45;96723.34;5113586;28;20603;-86
2024/03/08 09:30:18;;;;;;;7.30;5.10;;;;;;;6.19;78.02;96727.59;5126828;27;20198;-86
2024/03/08 09:32:44;;;;;;;3.73;3.20;;;;;;;6.05;77.25;96722.78;5120831;27;20664;-85
2024/03/08 09:35:11;;;;;;;4.00;3.70;;;;;;;6.01;76.75;96715.63;5119360;27;20247;-86
2024/03/08 09:37:40;;;;;;;3.17;2.97;;;;;;;6.19;76.72;96725.75;5133996;27;20199;-85
2024/03/08 09:40:10;;;;;;;2.80;2.60;;;;;;;5.72;76.16;96693.94;5131128;27;20195;-86
2024/03/08 09:42:38;;;;;;;3.50;3.20;;;;;;;5.85;77.92;96739.22;5113441;28;20206;-84
2024/03/08 09:45:10;;;;;;;4.07;3.50;;;;;;;5.69;77.84;96697.09;5127921;27;20207;-86
2024/03/08 09:47:38;;;;;;;4.77;3.97;;;;;;;5.64;78.07;96701.28;5126794;27;20301;-86
2024/03/08 09:50:09;;;;;;;7.37;4.40;;;;;;;5.81;78.64;96732.06;5133227;27;20277;-86
2024/03/08 09:52:37;;;;;;;3.07;2.77;;;;;;;5.70;79.11;96730.38;5133764;27;20241;-85
2024/03/08 09:55:06;;;;;;;6.13;4.97;;;;;;;5.66;78.71;96734.56;5133131;27;20206;-85
2024/03/08 09:57:33;;;;;;;3.30;3.00;;;;;;;5.59;78.58;96740.84;5132687;27;20191;-85
2024/03/08 10:00:00;;;;;;;4.50;4.10;;;;;;;5.64;78.80;96730.31;5132889;27;20205;-86
2024/03/08 10:02:29;;;;;;;3.83;3.50;;;;;;;5.57;78.74;96747.41;5133111;27;20198;-86
2024/03/08 10:04:58;;;;;;;3.10;2.83;;;;;;;5.42;79.70;96739.34;5133202;27;20221;-85
2024/03/08 10:07:25;;;;;;;4.20;3.80;;;;;;;5.29;80.74;96741.34;5132542;27;20219;-86
2024/03/08 10:09:53;;;;;;;8.57;6.83;;;;;;;5.33;81.63;96744.28;5123860;27;20199;-85
2024/03/08 10:12:20;;;;;;;9.33;7.80;;;;;;;5.24;82.72;96738.66;5127480;27;20649;-86
2024/03/08 10:14:47;;;;;;;13.27;10.97;;;;;;;5.26;83.02;96743.66;5124395;27;20204;-85
2024/03/08 10:17:14;;;;;;;15.93;12.03;;;;;;;4.88;83.92;96705.81;5129494;27;20551;-84
2024/03/08 10:19:51;;;;;;;12.47;10.70;;;;;;;5.21;83.01;96720.66;5131855;27;20688;-84
2024/03/08 10:22:18;;;;;;;12.03;9.13;;;;;;;5.39;82.94;96740.66;5133006;27;20665;-86
2024/03/08 10:24:46;;;;;;;11.57;9.47;;;;;;;5.31;82.95;96725.28;5132162;27;20195;-85
2024/03/08 10:27:13;;;;;;;11.93;9.30;;;;;;;5.16;82.54;96688.97;5132802;27;20287;-85
2024/03/08 10:29:43;;;;;;;13.10;9.47;;;;;;;5.49;83.07;96729.38;5132894;27;20202;-85
2024/03/08 10:32:11;;;;;;;19.73;14.67;;;;;;;5.35;82.86;96708.69;5132876;27;20251;-85
2024/03/08 10:34:43;;;;;;;12.23;9.90;;;;;;;5.72;82.14;96738.84;5132528;27;20195;-85
2024/03/08 10:37:17;;;;;;;12.47;9.60;;;;;;;5.80;81.73;96731.25;5131821;27;20205;-85
2024/03/08 10:39:54;;;;;;;13.77;10.40;;;;;;;5.95;81.25;96727.97;5132879;27;20202;-85
2024/03/08 10:42:29;;;;;;;12.50;11.20;;;;;;;5.95;81.35;96687.56;5132955;27;20194;-86
2024/03/08 10:45:07;;;;;;;12.97;11.00;;;;;;;5.84;81.32;96702.50;5130772;27;20243;-86
2024/03/08 10:47:42;;;;;;;12.70;11.03;;;;;;;6.02;81.13;96723.28;5124738;27;20380;-85
2024/03/08 10:50:20;;;;;;;16.13;12.00;;;;;;;5.69;80.50;96723.50;5132171;27;20202;-85
2024/03/08 10:52:50;;;;;;;16.37;10.63;;;;;;;5.70;81.66;96730.38;5132352;27;20289;-86
2024/03/08 10:55:21;;;;;;;17.07;13.17;;;;;;;5.48;81.66;96722.53;5132210;27;20735;-86
2024/03/08 10:57:48;;;;;;;12.70;11.20;;;;;;;5.17;82.37;96727.50;5131986;27;20221;-86
2024/03/08 11:00:16;;;;;;;19.70;14.67;;;;;;;4.81;83.29;96706.00;5132717;27;20194;-85
2024/03/08 11:02:45;;;;;;;19.77;16.73;;;;;;;4.82;83.84;96733.94;5132246;27;20684;-85
2024/03/08 11:05:32;;;;;;;19.23;15.27;;;;;;;4.80;83.46;96716.78;5132412;27;20195;-85
2024/03/08 11:07:59;;;;;;;19.00;17.00;;;;;;;4.69;83.65;96721.16;5125083;28;20246;-85
2024/03/08 11:10:26;;;;;;;20.10;17.80;;;;;;;4.57;83.81;96696.72;5111687;28;20260;-86
2024/03/08 11:12:53;;;;;;;24.00;16.27;;;;;;;4.62;84.11;96716.03;5111869;28;20233;-86
2024/03/08 11:15:20;;;;;;;19.83;15.50;;;;;;;4.37;83.86;96674.34;5122913;28;20222;-85
2024/03/08 11:17:48;;;;;;;17.97;15.83;;;;;;;4.78;83.64;96718.88;5119378;28;20195;-86
2024/03/08 11:20:20;;;;;;;16.70;15.00;;;;;;;4.87;83.99;96720.03;5132401;28;20198;-86
2024/03/08 11:22:51;;;;;;;21.30;16.10;;;;;;;4.86;84.03;96727.13;5132215;28;20198;-85
2024/03/08 11:25:37;;;;;;;22.13;17.90;;;;;;;4.91;83.80;96734.31;5115273;28;20287;-85
2024/03/08 11:28:16;;;;;;;21.23;16.90;;;;;;;4.57;83.83;96691.44;5123665;28;20232;-86
2024/03/08 11:30:43;;;;;;;26.20;19.77;;;;;;;4.94;83.95;96730.41;5131506;28;20202;-86
2024/03/08 11:33:13;;;;;;;50.63;35.43;;;;;;;4.76;84.24;96715.66;5130830;28;20551;-86